createdAt,value
2022-11-27T00:00:38.544Z,7.00
2022-11-27T00:01:39.390Z,7.00
2022-11-27T00:02:41.118Z,7.00
2022-11-27T00:03:41.093Z,6.94
2022-11-27T00:04:41.456Z,6.94
2022-11-27T00:05:42.304Z,6.94
2022-11-27T00:06:43.160Z,6.94
2022-11-27T00:07:44.080Z,6.94
2022-11-27T00:08:44.944Z,6.94
2022-11-27T00:09:45.795Z,6.94
2022-11-27T00:10:46.645Z,6.94
2022-11-27T00:11:47.495Z,6.88
2022-11-27T00:12:48.551Z,6.88
2022-11-27T00:13:48.907Z,6.88
2022-11-27T00:14:54.664Z,6.88
2022-11-27T00:15:51.814Z,6.88
2022-11-27T00:16:51.629Z,6.81
2022-11-27T00:17:52.502Z,6.81
2022-11-27T00:18:53.276Z,6.81
2022-11-27T00:19:54.128Z,6.81
2022-11-27T00:20:54.978Z,6.81
2022-11-27T00:21:55.829Z,6.88
2022-11-27T00:22:56.689Z,6.81
2022-11-27T00:23:57.541Z,6.81
2022-11-27T00:24:58.392Z,6.81
2022-11-27T00:25:59.247Z,6.81
2022-11-27T00:27:00.115Z,6.75
2022-11-27T00:28:01.048Z,6.75
2022-11-27T00:29:01.908Z,6.75
2022-11-27T00:30:02.782Z,6.69
2022-11-27T00:31:03.701Z,6.69
2022-11-27T00:32:04.489Z,6.69
2022-11-27T00:33:05.570Z,6.62
2022-11-27T00:34:05.839Z,6.62
2022-11-27T00:35:06.689Z,6.62
2022-11-27T00:36:07.541Z,6.62
2022-11-27T00:37:08.393Z,6.62
2022-11-27T00:38:09.253Z,6.62
2022-11-27T00:39:10.104Z,6.56
2022-11-27T00:40:10.957Z,6.56
2022-11-27T00:41:11.816Z,6.56
2022-11-27T00:42:12.668Z,6.56
2022-11-27T00:43:13.529Z,6.56
2022-11-27T00:44:14.381Z,6.56
2022-11-27T00:45:15.272Z,6.56
2022-11-27T00:46:16.251Z,6.56
2022-11-27T00:47:17.094Z,6.56
2022-11-27T00:48:18.063Z,6.56
2022-11-27T00:49:18.839Z,6.56
2022-11-27T00:50:19.690Z,6.56
2022-11-27T00:51:20.542Z,6.56
2022-11-27T00:52:21.405Z,6.50
2022-11-27T00:53:22.550Z,6.50
2022-11-27T00:54:23.076Z,6.50
2022-11-27T00:55:23.871Z,6.50
2022-11-27T00:56:24.722Z,6.50
2022-11-27T00:57:25.583Z,6.50
2022-11-27T00:58:26.446Z,6.44
2022-11-27T00:59:27.343Z,6.50
2022-11-27T01:00:28.218Z,6.62
2022-11-27T01:01:29.153Z,6.56
2022-11-27T01:02:29.995Z,6.56
2022-11-27T01:03:31.073Z,6.62
2022-11-27T01:04:31.368Z,6.56
2022-11-27T01:05:32.222Z,6.56
2022-11-27T01:06:33.083Z,6.50
2022-11-27T01:07:34.012Z,6.50
2022-11-27T01:08:35.047Z,6.50
2022-11-27T01:09:35.402Z,6.44
2022-11-27T01:10:36.248Z,6.50
2022-11-27T01:11:37.107Z,6.44
2022-11-27T01:12:37.949Z,6.44
2022-11-27T01:13:38.810Z,6.44
2022-11-27T01:14:39.926Z,6.44
2022-11-27T01:15:40.500Z,6.44
2022-11-27T01:16:43.301Z,6.44
2022-11-27T01:17:41.839Z,6.44
2022-11-27T01:18:42.718Z,6.44
2022-11-27T01:19:43.492Z,6.44
2022-11-27T01:20:44.362Z,6.44
2022-11-27T01:21:45.216Z,6.44
2022-11-27T01:22:46.066Z,6.44
2022-11-27T01:23:46.928Z,6.44
2022-11-27T01:24:47.779Z,6.44
2022-11-27T01:27:38.184Z,6.44
2022-11-27T01:28:39.041Z,6.38
2022-11-27T01:29:40.178Z,6.38
2022-11-27T01:30:40.528Z,6.38
2022-11-27T01:31:41.529Z,6.38
2022-11-27T01:32:41.890Z,6.38
2022-11-27T01:33:42.752Z,6.38
2022-11-27T01:34:43.697Z,6.38
2022-11-27T01:35:44.476Z,6.38
2022-11-27T01:36:45.326Z,6.38
2022-11-27T01:37:46.176Z,6.38
2022-11-27T01:38:47.027Z,6.31
2022-11-27T01:39:48.177Z,6.38
2022-11-27T01:40:48.529Z,6.31
2022-11-27T01:41:49.393Z,6.31
2022-11-27T01:42:50.253Z,6.38
2022-11-27T01:43:51.102Z,6.38
2022-11-27T01:44:51.964Z,6.38
2022-11-27T01:45:52.816Z,6.38
2022-11-27T01:46:53.763Z,6.38
2022-11-27T01:47:54.572Z,6.44
2022-11-27T01:48:55.422Z,6.44
2022-11-27T01:49:56.719Z,6.44
2022-11-27T01:50:56.991Z,6.44
2022-11-27T01:51:57.837Z,6.44
2022-11-27T01:52:58.690Z,6.50
2022-11-27T01:53:59.543Z,6.50
2022-11-27T01:55:00.402Z,6.50
2022-11-27T01:56:01.262Z,6.50
2022-11-27T01:57:02.111Z,6.56
2022-11-27T01:58:02.964Z,6.50
2022-11-27T01:59:03.812Z,6.50
2022-11-27T02:00:05.174Z,6.44
2022-11-27T02:01:05.536Z,6.44
2022-11-27T02:02:06.496Z,6.44
2022-11-27T02:03:07.405Z,6.44
2022-11-27T02:04:08.214Z,6.44
2022-11-27T02:05:09.102Z,6.44
2022-11-27T02:06:09.878Z,6.44
2022-11-27T02:07:10.764Z,6.44
2022-11-27T02:08:11.596Z,6.44
2022-11-27T02:09:12.460Z,6.44
2022-11-27T02:10:13.673Z,6.38
2022-11-27T02:11:14.034Z,6.38
2022-11-27T02:12:14.885Z,6.38
2022-11-27T02:13:15.738Z,6.31
2022-11-27T02:14:16.594Z,6.31
2022-11-27T02:15:17.671Z,6.31
2022-11-27T02:16:18.459Z,6.31
2022-11-27T02:17:18.774Z,6.31
2022-11-27T02:18:19.625Z,6.31
2022-11-27T02:19:20.477Z,6.25
2022-11-27T02:20:21.709Z,6.25
2022-11-27T02:21:22.020Z,6.25
2022-11-27T02:22:22.888Z,6.25
2022-11-27T02:23:23.734Z,6.25
2022-11-27T02:24:24.589Z,6.25
2022-11-27T02:25:28.414Z,6.25
2022-11-27T02:26:25.973Z,6.25
2022-11-27T02:27:26.828Z,6.25
2022-11-27T02:28:27.698Z,6.25
2022-11-27T02:29:28.558Z,6.25
2022-11-27T02:30:29.671Z,6.19
2022-11-27T02:31:30.089Z,6.19
2022-11-27T02:32:30.937Z,6.19
2022-11-27T02:33:31.787Z,6.19
2022-11-27T02:34:32.639Z,6.19
2022-11-27T02:35:33.517Z,6.19
2022-11-27T02:36:34.290Z,6.19
2022-11-27T02:37:35.138Z,6.19
2022-11-27T02:38:35.988Z,6.19
2022-11-27T02:39:36.843Z,6.19
2022-11-27T02:40:37.702Z,6.25
2022-11-27T02:41:38.572Z,6.19
2022-11-27T02:42:39.543Z,6.19
2022-11-27T02:43:40.306Z,6.19
2022-11-27T02:44:41.524Z,6.25
2022-11-27T02:45:42.166Z,6.25
2022-11-27T02:46:42.582Z,6.25
2022-11-27T02:47:43.410Z,6.25
2022-11-27T02:48:44.277Z,6.25
2022-11-27T02:49:45.129Z,6.19
2022-11-27T02:50:46.039Z,6.19
2022-11-27T02:51:46.829Z,6.19
2022-11-27T02:52:47.679Z,6.19
2022-11-27T02:53:48.532Z,6.19
2022-11-27T02:54:49.380Z,6.19
2022-11-27T02:55:50.664Z,6.19
2022-11-27T02:56:51.021Z,6.19
2022-11-27T02:57:51.989Z,6.12
2022-11-27T02:58:52.765Z,6.12
2022-11-27T02:59:53.629Z,6.12
2022-11-27T03:00:54.666Z,6.12
2022-11-27T03:01:55.056Z,6.12
2022-11-27T03:02:55.980Z,6.12
2022-11-27T03:03:56.820Z,6.12
2022-11-27T03:04:57.675Z,6.12
2022-11-27T03:05:58.693Z,6.12
2022-11-27T03:06:59.467Z,6.12
2022-11-27T03:08:00.387Z,6.19
2022-11-27T03:09:01.209Z,6.19
2022-11-27T03:10:02.063Z,6.12
2022-11-27T03:11:02.924Z,6.12
2022-11-27T03:12:03.777Z,6.19
2022-11-27T03:13:04.742Z,6.19
2022-11-27T03:14:05.510Z,6.12
2022-11-27T03:15:06.382Z,6.12
2022-11-27T03:16:07.304Z,6.06
2022-11-27T03:17:08.120Z,6.06
2022-11-27T03:18:08.973Z,6.06
2022-11-27T03:19:09.831Z,6.06
2022-11-27T03:20:10.679Z,6.12
2022-11-27T03:21:11.574Z,6.12
2022-11-27T03:22:12.350Z,6.06
2022-11-27T03:23:13.206Z,6.12
2022-11-27T03:24:14.058Z,6.12
2022-11-27T03:25:14.924Z,6.12
2022-11-27T03:26:15.784Z,6.12
2022-11-27T03:27:16.641Z,6.12
2022-11-27T03:28:17.606Z,6.06
2022-11-27T03:29:18.365Z,6.06
2022-11-27T03:30:19.227Z,6.00
2022-11-27T03:31:20.717Z,6.06
2022-11-27T03:32:21.034Z,6.06
2022-11-27T03:33:21.899Z,6.06
2022-11-27T03:34:22.756Z,6.00
2022-11-27T03:35:23.603Z,6.06
2022-11-27T03:36:24.485Z,6.06
2022-11-27T03:37:25.256Z,6.06
2022-11-27T03:38:26.106Z,6.06
2022-11-27T03:39:26.956Z,6.06
2022-11-27T03:40:27.807Z,6.06
2022-11-27T03:41:28.669Z,6.06
2022-11-27T03:42:29.519Z,6.12
2022-11-27T03:43:30.485Z,6.12
2022-11-27T03:44:31.273Z,6.12
2022-11-27T03:45:32.139Z,6.12
2022-11-27T03:46:33.200Z,6.12
2022-11-27T03:47:33.616Z,6.19
2022-11-27T03:48:34.433Z,6.19
2022-11-27T03:49:35.290Z,6.19
2022-11-27T03:50:36.132Z,6.19
2022-11-27T03:51:37.173Z,6.19
2022-11-27T03:52:37.974Z,6.19
2022-11-27T03:53:38.820Z,6.19
2022-11-27T03:54:39.924Z,6.19
2022-11-27T03:55:40.419Z,6.19
2022-11-27T03:56:41.278Z,6.19
2022-11-27T03:57:42.130Z,6.19
2022-11-27T03:58:43.103Z,6.25
2022-11-27T03:59:43.865Z,6.25
2022-11-27T04:00:44.715Z,6.25
2022-11-27T04:01:45.649Z,6.25
2022-11-27T04:02:46.437Z,6.25
2022-11-27T04:03:47.389Z,6.25
2022-11-27T04:04:48.185Z,6.25
2022-11-27T04:05:49.049Z,6.25
2022-11-27T04:06:50.185Z,6.25
2022-11-27T04:07:50.563Z,6.31
2022-11-27T04:08:51.342Z,6.31
2022-11-27T04:09:52.205Z,6.38
2022-11-27T04:10:53.065Z,6.38
2022-11-27T04:11:53.927Z,6.38
2022-11-27T04:12:54.813Z,6.44
2022-11-27T04:13:55.774Z,6.44
2022-11-27T04:14:56.547Z,6.50
2022-11-27T04:15:57.470Z,6.50
2022-11-27T04:16:58.658Z,6.56
2022-11-27T04:17:59.006Z,6.56
2022-11-27T04:18:59.856Z,6.56
2022-11-27T04:20:00.707Z,6.56
2022-11-27T04:21:01.561Z,6.56
2022-11-27T04:22:02.441Z,6.56
2022-11-27T04:23:03.216Z,6.62
2022-11-27T04:24:04.068Z,6.62
2022-11-27T04:25:04.922Z,6.62
2022-11-27T04:26:05.778Z,6.62
2022-11-27T04:27:06.652Z,6.62
2022-11-27T04:28:07.522Z,6.69
2022-11-27T04:29:08.499Z,6.69
2022-11-27T04:30:09.275Z,6.69
2022-11-27T04:31:10.234Z,6.69
2022-11-27T04:32:11.036Z,6.69
2022-11-27T04:33:11.885Z,6.62
2022-11-27T04:34:12.744Z,6.62
2022-11-27T04:35:13.632Z,6.62
2022-11-27T04:36:14.484Z,6.62
2022-11-27T04:37:15.364Z,6.69
2022-11-27T04:38:16.137Z,6.62
2022-11-27T04:39:16.991Z,6.62
2022-11-27T04:40:17.848Z,6.62
2022-11-27T04:41:18.701Z,6.69
2022-11-27T04:42:19.561Z,6.69
2022-11-27T04:43:20.416Z,6.69
2022-11-27T04:44:21.381Z,6.69
2022-11-27T04:45:22.153Z,6.69
2022-11-27T04:46:23.069Z,6.69
2022-11-27T04:47:23.866Z,6.62
2022-11-27T04:48:24.737Z,6.69
2022-11-27T04:49:25.594Z,6.69
2022-11-27T04:50:26.497Z,6.69
2022-11-27T04:51:27.349Z,6.69
2022-11-27T04:52:28.687Z,6.69
2022-11-27T04:53:28.962Z,6.69
2022-11-27T04:54:29.816Z,6.69
2022-11-27T04:55:30.666Z,6.69
2022-11-27T04:56:31.523Z,6.69
2022-11-27T04:57:32.654Z,6.69
2022-11-27T04:58:33.014Z,6.69
2022-11-27T04:59:33.989Z,6.69
2022-11-27T05:00:34.831Z,6.69
2022-11-27T05:01:35.640Z,6.69
2022-11-27T05:02:36.685Z,6.69
2022-11-27T05:03:37.006Z,6.69
2022-11-27T05:04:38.026Z,6.69
2022-11-27T05:05:38.367Z,6.69
2022-11-27T05:06:39.219Z,6.69
2022-11-27T05:07:40.143Z,6.69
2022-11-27T05:08:40.940Z,6.69
2022-11-27T05:09:41.796Z,6.69
2022-11-27T05:10:42.699Z,6.69
2022-11-27T05:11:43.546Z,6.69
2022-11-27T05:12:44.406Z,6.69
2022-11-27T05:13:45.255Z,6.69
2022-11-27T05:14:46.224Z,6.69
2022-11-27T05:15:47.034Z,6.69
2022-11-27T05:16:47.854Z,6.69
2022-11-27T05:17:48.712Z,6.69
2022-11-27T05:18:49.562Z,6.69
2022-11-27T05:19:50.480Z,6.69
2022-11-27T05:20:51.342Z,6.69
2022-11-27T05:21:52.185Z,6.69
2022-11-27T05:22:53.063Z,6.69
2022-11-27T05:23:53.837Z,6.69
2022-11-27T05:24:54.690Z,6.69
2022-11-27T05:25:55.539Z,6.69
2022-11-27T05:26:56.398Z,6.69
2022-11-27T05:27:57.644Z,6.75
2022-11-27T05:28:57.996Z,6.75
2022-11-27T05:29:58.967Z,6.75
2022-11-27T05:30:59.815Z,6.75
2022-11-27T05:32:00.607Z,6.75
2022-11-27T05:33:01.643Z,6.75
2022-11-27T05:34:01.995Z,6.75
2022-11-27T05:35:02.864Z,6.75
2022-11-27T05:36:03.714Z,6.75
2022-11-27T05:37:04.567Z,6.75
2022-11-27T05:38:05.443Z,6.75
2022-11-27T05:39:06.219Z,6.75
2022-11-27T05:40:07.082Z,6.75
2022-11-27T05:41:07.932Z,6.75
2022-11-27T05:42:08.787Z,6.75
2022-11-27T05:43:10.140Z,6.75
2022-11-27T05:44:10.490Z,6.75
2022-11-27T05:45:11.455Z,6.81
2022-11-27T05:46:12.345Z,6.81
2022-11-27T05:47:13.138Z,6.81
2022-11-27T05:48:14.143Z,6.81
2022-11-27T05:49:14.508Z,6.88
2022-11-27T05:50:15.363Z,6.81
2022-11-27T05:51:16.215Z,6.88
2022-11-27T05:52:17.086Z,6.88
2022-11-27T05:53:18.157Z,6.88
2022-11-27T05:54:18.442Z,6.88
2022-11-27T05:55:19.294Z,6.88
2022-11-27T05:56:20.145Z,6.94
2022-11-27T05:57:20.999Z,7.00
2022-11-27T05:58:21.859Z,6.94
2022-11-27T05:59:22.707Z,7.00
2022-11-27T06:00:23.669Z,7.00
2022-11-27T06:01:24.438Z,7.00
2022-11-27T06:02:29.341Z,7.06
2022-11-27T06:03:26.066Z,7.00
2022-11-27T06:04:26.840Z,7.00
2022-11-27T06:05:27.690Z,7.00
2022-11-27T06:06:28.541Z,7.00
2022-11-27T06:07:29.463Z,7.00
2022-11-27T06:08:30.726Z,7.00
2022-11-27T06:09:31.001Z,7.00
2022-11-27T06:10:31.853Z,7.00
2022-11-27T06:11:32.703Z,7.00
2022-11-27T06:12:33.553Z,7.00
2022-11-27T06:13:34.413Z,7.06
2022-11-27T06:14:35.266Z,7.06
2022-11-27T06:15:36.231Z,7.06
2022-11-27T06:16:37.121Z,7.06
2022-11-27T06:17:37.941Z,7.06
2022-11-27T06:18:38.799Z,7.06
2022-11-27T06:19:39.648Z,7.06
2022-11-27T06:20:44.183Z,7.06
2022-11-27T06:21:41.132Z,7.06
2022-11-27T06:22:41.987Z,7.06
2022-11-27T06:23:43.189Z,7.06
2022-11-27T06:24:43.725Z,7.06
2022-11-27T06:25:44.073Z,7.06
2022-11-27T06:26:44.929Z,7.12
2022-11-27T06:27:45.773Z,7.06
2022-11-27T06:28:47.133Z,7.12
2022-11-27T06:29:47.485Z,7.12
2022-11-27T06:30:48.459Z,7.19
2022-11-27T06:31:49.282Z,7.19
2022-11-27T06:32:50.120Z,7.19
2022-11-27T06:33:50.999Z,7.19
2022-11-27T06:34:51.866Z,7.25
2022-11-27T06:35:52.720Z,7.25
2022-11-27T06:36:53.570Z,7.31
2022-11-27T06:37:54.433Z,7.25
2022-11-27T06:38:55.310Z,7.31
2022-11-27T06:39:56.088Z,7.25
2022-11-27T06:40:56.938Z,7.31
2022-11-27T06:41:57.801Z,7.25
2022-11-27T06:42:58.651Z,7.25
2022-11-27T06:43:59.509Z,7.25
2022-11-27T06:45:00.366Z,7.25
2022-11-27T06:46:01.393Z,7.25
2022-11-27T06:47:02.203Z,7.25
2022-11-27T06:48:03.059Z,7.25
2022-11-27T06:49:04.130Z,7.25
2022-11-27T06:50:04.485Z,7.25
2022-11-27T06:51:05.353Z,7.31
2022-11-27T06:52:06.209Z,7.31
2022-11-27T06:53:07.068Z,7.31
2022-11-27T06:54:07.944Z,7.31
2022-11-27T06:55:09.158Z,7.31
2022-11-27T06:56:09.560Z,7.31
2022-11-27T06:57:10.364Z,7.31
2022-11-27T06:58:11.215Z,7.31
2022-11-27T06:59:12.076Z,7.31
2022-11-27T07:00:12.940Z,7.31
2022-11-27T07:01:14.018Z,7.31
2022-11-27T07:02:14.367Z,7.31
2022-11-27T07:03:15.167Z,7.31
2022-11-27T07:04:16.029Z,7.38
2022-11-27T07:05:16.882Z,7.31
2022-11-27T07:06:17.738Z,7.38
2022-11-27T07:07:18.699Z,7.38
2022-11-27T07:08:19.489Z,7.38
2022-11-27T07:09:21.165Z,7.38
2022-11-27T07:10:20.968Z,7.44
2022-11-27T07:11:21.823Z,7.44
2022-11-27T07:12:22.676Z,7.44
2022-11-27T07:13:23.523Z,7.44
2022-11-27T07:14:24.379Z,7.44
2022-11-27T07:15:25.229Z,7.44
2022-11-27T07:16:26.278Z,7.44
2022-11-27T07:17:26.603Z,7.44
2022-11-27T07:18:27.455Z,7.44
2022-11-27T07:19:28.316Z,7.44
2022-11-27T07:20:29.167Z,7.44
2022-11-27T07:21:30.024Z,7.44
2022-11-27T07:22:30.872Z,7.44
2022-11-27T07:23:31.722Z,7.50
2022-11-27T07:24:32.643Z,7.50
2022-11-27T07:25:33.417Z,7.50
2022-11-27T07:26:34.283Z,7.50
2022-11-27T07:27:35.156Z,7.50
2022-11-27T07:28:36.018Z,7.50
2022-11-27T07:29:36.871Z,7.50
2022-11-27T07:30:37.727Z,7.50
2022-11-27T07:31:38.761Z,7.50
2022-11-27T07:32:39.090Z,7.56
2022-11-27T07:33:39.952Z,7.56
2022-11-27T07:34:41.360Z,7.56
2022-11-27T07:35:41.774Z,7.56
2022-11-27T07:36:42.631Z,7.56
2022-11-27T07:37:43.470Z,7.56
2022-11-27T07:38:44.324Z,7.56
2022-11-27T07:40:01.951Z,7.56
2022-11-27T07:40:46.931Z,7.56
2022-11-27T07:41:46.783Z,7.62
2022-11-27T07:42:47.632Z,7.62
2022-11-27T07:43:48.498Z,7.62
2022-11-27T07:44:49.625Z,7.62
2022-11-27T07:45:50.048Z,7.62
2022-11-27T07:46:50.990Z,7.62
2022-11-27T07:47:51.759Z,7.69
2022-11-27T07:48:52.623Z,7.69
2022-11-27T07:49:53.482Z,7.75
2022-11-27T07:50:54.346Z,7.75
2022-11-27T07:51:55.208Z,7.81
2022-11-27T07:52:56.066Z,7.81
2022-11-27T07:53:56.937Z,7.81
2022-11-27T07:54:57.814Z,7.88
2022-11-27T07:55:58.605Z,7.88
2022-11-27T07:56:59.465Z,7.88
2022-11-27T07:58:00.328Z,7.94
2022-11-27T07:59:01.179Z,7.94
2022-11-27T08:00:02.124Z,7.94
2022-11-27T08:01:03.056Z,8.00
2022-11-27T08:02:03.993Z,8.00
2022-11-27T08:03:04.764Z,8.00
2022-11-27T08:04:05.616Z,8.00
2022-11-27T08:05:12.098Z,8.00
2022-11-27T08:06:08.372Z,8.00
2022-11-27T08:07:08.234Z,8.00
2022-11-27T08:08:09.103Z,8.00
2022-11-27T08:09:09.959Z,8.00
2022-11-27T08:10:11.165Z,8.00
2022-11-27T08:11:11.451Z,8.00
2022-11-27T08:12:12.299Z,8.06
2022-11-27T08:13:13.181Z,8.06
2022-11-27T08:14:14.053Z,8.00
2022-11-27T08:15:15.124Z,8.00
2022-11-27T08:16:15.567Z,8.00
2022-11-27T08:17:16.471Z,8.06
2022-11-27T08:18:17.235Z,8.06
2022-11-27T08:19:18.086Z,8.06
2022-11-27T08:20:18.945Z,8.06
2022-11-27T08:21:19.796Z,8.06
2022-11-27T08:22:20.647Z,8.06
2022-11-27T08:23:21.496Z,8.06
2022-11-27T08:24:22.349Z,8.12
2022-11-27T08:25:23.655Z,8.12
2022-11-27T08:26:23.953Z,8.12
2022-11-27T08:27:24.782Z,8.19
2022-11-27T08:28:25.632Z,8.19
2022-11-27T08:29:31.182Z,8.19
2022-11-27T08:30:28.620Z,8.25
2022-11-27T08:31:28.128Z,8.19
2022-11-27T08:32:29.033Z,8.25
2022-11-27T08:33:29.795Z,8.25
2022-11-27T08:34:30.659Z,8.31
2022-11-27T08:35:31.523Z,8.31
2022-11-27T08:36:32.403Z,8.31
2022-11-27T08:37:33.259Z,8.38
2022-11-27T08:38:34.109Z,8.38
2022-11-27T08:39:34.961Z,8.44
2022-11-27T08:40:35.837Z,8.44
2022-11-27T08:41:36.603Z,8.50
2022-11-27T08:42:37.467Z,8.56
2022-11-27T08:43:38.316Z,8.56
2022-11-27T08:44:39.486Z,8.62
2022-11-27T08:45:40.078Z,8.69
2022-11-27T08:46:40.884Z,8.75
2022-11-27T08:47:41.867Z,8.81
2022-11-27T08:48:42.634Z,8.81
2022-11-27T08:49:46.298Z,8.88
2022-11-27T08:50:44.257Z,8.88
2022-11-27T08:51:45.105Z,8.88
2022-11-27T08:52:45.954Z,8.88
2022-11-27T08:53:46.806Z,8.88
2022-11-27T08:54:47.654Z,8.88
2022-11-27T08:55:48.552Z,8.88
2022-11-27T08:56:49.364Z,8.88
2022-11-27T08:57:50.214Z,8.81
2022-11-27T08:58:51.065Z,8.81
2022-11-27T08:59:51.932Z,8.81
2022-11-27T09:00:52.864Z,8.81
2022-11-27T09:01:53.667Z,8.81
2022-11-27T09:02:54.641Z,8.88
2022-11-27T09:03:55.470Z,8.81
2022-11-27T09:04:56.276Z,8.88
2022-11-27T09:05:57.618Z,8.88
2022-11-27T09:06:58.860Z,8.88
2022-11-27T09:07:58.831Z,8.88
2022-11-27T09:08:59.659Z,8.88
2022-11-27T09:10:00.516Z,8.94
2022-11-27T09:11:01.646Z,8.94
2022-11-27T09:12:01.928Z,8.94
2022-11-27T09:13:02.786Z,8.94
2022-11-27T09:14:03.647Z,8.94
2022-11-27T09:15:04.496Z,9.00
2022-11-27T09:16:05.442Z,9.00
2022-11-27T09:17:06.287Z,9.06
2022-11-27T09:18:07.381Z,9.06
2022-11-27T09:19:07.687Z,9.06
2022-11-27T09:20:08.552Z,9.12
2022-11-27T09:21:09.403Z,9.12
2022-11-27T09:22:10.259Z,9.12
2022-11-27T09:23:14.350Z,9.12
2022-11-27T09:24:11.917Z,9.12
2022-11-27T09:25:12.770Z,9.12
2022-11-27T09:26:13.667Z,9.12
2022-11-27T09:27:14.441Z,9.12
2022-11-27T09:28:15.296Z,9.12
2022-11-27T09:29:16.147Z,9.12
2022-11-27T09:30:17.017Z,9.19
2022-11-27T09:31:18.115Z,9.19
2022-11-27T09:32:18.534Z,9.19
2022-11-27T09:33:19.458Z,9.25
2022-11-27T09:34:20.236Z,9.19
2022-11-27T09:35:21.222Z,9.19
2022-11-27T09:36:22.119Z,9.19
2022-11-27T09:37:22.992Z,9.25
2022-11-27T09:38:23.844Z,9.25
2022-11-27T09:39:24.693Z,9.25
2022-11-27T09:40:25.547Z,9.31
2022-11-27T09:41:26.630Z,9.25
2022-11-27T09:42:26.935Z,9.25
2022-11-27T09:43:27.816Z,9.31
2022-11-27T09:44:28.665Z,9.25
2022-11-27T09:45:29.634Z,9.31
2022-11-27T09:46:30.437Z,9.31
2022-11-27T09:47:31.290Z,9.25
2022-11-27T09:48:32.256Z,9.31
2022-11-27T09:49:33.024Z,9.25
2022-11-27T09:50:33.889Z,9.31
2022-11-27T09:51:34.746Z,9.25
2022-11-27T09:52:35.630Z,9.25
2022-11-27T09:53:36.489Z,9.25
2022-11-27T09:54:37.341Z,9.25
2022-11-27T09:55:38.199Z,9.31
2022-11-27T09:56:39.135Z,9.31
2022-11-27T09:57:39.909Z,9.25
2022-11-27T09:58:40.765Z,9.25
2022-11-27T09:59:41.621Z,9.25
2022-11-27T10:00:42.479Z,9.25
2022-11-27T10:01:49.330Z,9.25
2022-11-27T10:02:45.352Z,9.25
2022-11-27T10:03:44.844Z,9.31
2022-11-27T10:05:12.500Z,9.25
2022-11-27T10:05:47.353Z,9.31
2022-11-27T10:06:47.213Z,9.25
2022-11-27T10:07:48.185Z,9.31
2022-11-27T10:08:48.996Z,9.31
2022-11-27T10:09:49.844Z,9.25
2022-11-27T10:10:50.898Z,9.31
2022-11-27T10:11:51.292Z,9.31
2022-11-27T10:12:52.058Z,9.38
2022-11-27T10:13:52.912Z,9.31
2022-11-27T10:14:53.761Z,9.38
2022-11-27T10:15:54.655Z,9.38
2022-11-27T10:16:55.679Z,9.38
2022-11-27T10:17:56.462Z,9.38
2022-11-27T10:19:02.491Z,9.38
2022-11-27T10:19:59.182Z,9.38
2022-11-27T10:20:58.948Z,9.44
2022-11-27T10:22:00.112Z,9.44
2022-11-27T10:23:00.463Z,9.44
2022-11-27T10:24:05.253Z,9.50
2022-11-27T10:25:01.843Z,9.50
2022-11-27T10:26:02.696Z,9.50
2022-11-27T10:27:03.626Z,9.50
2022-11-27T10:28:04.405Z,9.50
2022-11-27T10:29:05.255Z,9.56
2022-11-27T10:30:06.120Z,9.56
2022-11-27T10:31:06.974Z,9.56
2022-11-27T10:32:07.916Z,9.56
2022-11-27T10:33:08.716Z,9.62
2022-11-27T10:34:09.579Z,9.62
2022-11-27T10:35:10.540Z,9.62
2022-11-27T10:36:11.343Z,9.69
2022-11-27T10:37:12.202Z,9.69
2022-11-27T10:38:13.081Z,9.75
2022-11-27T10:39:13.928Z,9.75
2022-11-27T10:40:14.779Z,9.81
2022-11-27T10:41:47.564Z,9.81
2022-11-27T10:42:17.403Z,9.88
2022-11-27T10:43:17.172Z,9.94
2022-11-27T10:44:18.018Z,9.94
2022-11-27T10:45:18.893Z,9.94
2022-11-27T10:46:19.856Z,9.94
2022-11-27T10:47:21.105Z,9.94
2022-11-27T10:48:21.462Z,9.94
2022-11-27T10:49:22.316Z,10.00
2022-11-27T10:50:23.288Z,10.00
2022-11-27T10:51:24.080Z,10.00
2022-11-27T10:52:24.932Z,10.00
2022-11-27T10:53:25.781Z,10.06
2022-11-27T10:54:26.636Z,10.06
2022-11-27T10:55:27.498Z,10.06
2022-11-27T10:56:28.360Z,10.06
2022-11-27T10:57:29.691Z,10.12
2022-11-27T10:58:29.956Z,10.12
2022-11-27T10:59:34.442Z,10.12
2022-11-27T11:00:31.580Z,10.12
2022-11-27T11:01:32.546Z,10.12
2022-11-27T11:02:33.499Z,10.12
2022-11-27T11:03:34.303Z,10.19
2022-11-27T11:04:39.047Z,10.19
2022-11-27T11:06:18.514Z,10.25
2022-11-27T11:06:37.764Z,10.19
2022-11-27T11:07:38.176Z,10.19
2022-11-27T11:08:38.491Z,10.19
2022-11-27T11:09:39.340Z,10.12
2022-11-27T11:10:40.209Z,10.12
2022-11-27T11:11:41.057Z,10.12
2022-11-27T11:12:42.132Z,10.19
2022-11-27T11:13:42.901Z,10.19
2022-11-27T11:14:43.757Z,10.19
2022-11-27T11:15:47.448Z,10.19
2022-11-27T11:16:46.388Z,10.19
2022-11-27T11:17:46.224Z,10.19
2022-11-27T11:18:47.074Z,10.12
2022-11-27T11:19:47.923Z,10.19
2022-11-27T11:20:48.929Z,10.19
2022-11-27T11:21:49.700Z,10.25
2022-11-27T11:22:50.612Z,10.25
2022-11-27T11:23:51.456Z,10.25
2022-11-27T11:24:52.311Z,10.25
2022-11-27T11:25:53.173Z,10.25
2022-11-27T11:26:54.030Z,10.25
2022-11-27T11:27:55.119Z,10.25
2022-11-27T11:28:55.408Z,10.19
2022-11-27T11:29:56.264Z,10.19
2022-11-27T11:30:57.121Z,10.19
2022-11-27T11:31:58.001Z,10.19
2022-11-27T11:32:59.112Z,10.19
2022-11-27T11:33:59.474Z,10.19
2022-11-27T11:35:01.477Z,10.25
2022-11-27T11:36:01.067Z,10.25
2022-11-27T11:37:01.882Z,10.25
2022-11-27T11:38:03.104Z,10.25
2022-11-27T11:39:03.459Z,10.25
2022-11-27T11:40:04.314Z,10.25
2022-11-27T11:41:05.176Z,10.25
2022-11-27T11:42:06.039Z,10.25
2022-11-27T11:43:07.124Z,10.31
2022-11-27T11:44:07.447Z,10.25
2022-11-27T11:45:08.300Z,10.31
2022-11-27T11:46:09.273Z,10.31
2022-11-27T11:47:10.080Z,10.38
2022-11-27T11:48:11.104Z,10.38
2022-11-27T11:49:11.457Z,10.38
2022-11-27T11:50:12.313Z,10.38
2022-11-27T11:51:13.281Z,10.38
2022-11-27T11:52:14.053Z,10.38
2022-11-27T11:53:15.104Z,10.44
2022-11-27T11:54:15.455Z,10.44
2022-11-27T11:55:16.309Z,10.44
2022-11-27T11:56:17.160Z,10.50
2022-11-27T11:57:18.011Z,10.50
2022-11-27T11:58:19.123Z,10.50
2022-11-27T11:59:19.458Z,10.56
2022-11-27T12:00:23.880Z,10.56
2022-11-27T12:01:29.348Z,10.56
2022-11-27T12:02:22.878Z,10.56
2022-11-27T12:03:22.709Z,10.56
2022-11-27T12:04:23.695Z,10.62
2022-11-27T12:05:24.512Z,10.62
2022-11-27T12:06:25.484Z,10.56
2022-11-27T12:07:26.306Z,10.62
2022-11-27T12:08:27.116Z,10.62
2022-11-27T12:09:27.968Z,10.62
2022-11-27T12:10:28.818Z,10.62
2022-11-27T12:11:29.667Z,10.62
2022-11-27T12:12:30.517Z,10.62
2022-11-27T12:13:33.347Z,10.62
2022-11-27T12:14:32.335Z,10.62
2022-11-27T12:15:33.185Z,10.69
2022-11-27T12:16:34.092Z,10.69
2022-11-27T12:17:34.933Z,10.69
2022-11-27T12:18:35.796Z,10.69
2022-11-27T12:19:36.660Z,10.69
2022-11-27T12:20:37.513Z,10.69
2022-11-27T12:21:38.483Z,10.69
2022-11-27T12:22:39.264Z,10.69
2022-11-27T12:23:40.604Z,10.69
2022-11-27T12:24:41.202Z,10.69
2022-11-27T12:25:41.785Z,10.75
2022-11-27T12:26:42.634Z,10.69
2022-11-27T12:27:43.481Z,10.75
2022-11-27T12:28:44.361Z,10.75
2022-11-27T12:29:45.180Z,10.81
2022-11-27T12:30:46.036Z,10.81
2022-11-27T12:31:47.002Z,10.81
2022-11-27T12:32:47.805Z,10.81
2022-11-27T12:33:48.662Z,10.81
2022-11-27T12:34:49.515Z,10.88
2022-11-27T12:35:50.371Z,10.88
2022-11-27T12:36:51.372Z,10.88
2022-11-27T12:37:52.156Z,10.81
2022-11-27T12:38:53.014Z,10.81
2022-11-27T12:39:53.865Z,10.81
2022-11-27T12:40:54.716Z,10.81
2022-11-27T12:41:55.565Z,10.88
2022-11-27T12:42:56.415Z,10.88
2022-11-27T12:43:57.620Z,10.88
2022-11-27T12:44:57.882Z,10.88
2022-11-27T12:45:58.849Z,10.88
2022-11-27T12:46:59.655Z,10.88
2022-11-27T12:48:00.567Z,10.88
2022-11-27T12:49:01.598Z,10.88
2022-11-27T12:50:01.948Z,10.88
2022-11-27T12:51:02.803Z,10.88
2022-11-27T12:52:03.764Z,10.88
2022-11-27T12:53:04.531Z,10.88
2022-11-27T12:54:05.616Z,10.88
2022-11-27T12:55:05.967Z,10.88
2022-11-27T12:56:06.824Z,10.88
2022-11-27T12:57:07.677Z,10.88
2022-11-27T12:58:08.528Z,10.88
2022-11-27T12:59:09.402Z,10.88
2022-11-27T13:00:10.205Z,10.81
2022-11-27T13:01:11.163Z,10.81
2022-11-27T13:02:12.065Z,10.81
2022-11-27T13:03:12.870Z,10.75
2022-11-27T13:04:13.718Z,10.69
2022-11-27T13:05:14.561Z,10.75
2022-11-27T13:06:15.411Z,10.69
2022-11-27T13:07:16.409Z,10.69
2022-11-27T13:08:17.194Z,10.69
2022-11-27T13:09:18.059Z,10.69
2022-11-27T13:10:18.904Z,10.62
2022-11-27T13:11:19.769Z,10.69
2022-11-27T13:12:20.623Z,10.62
2022-11-27T13:13:21.483Z,10.62
2022-11-27T13:14:22.374Z,10.69
2022-11-27T13:15:23.152Z,10.69
2022-11-27T13:16:24.095Z,10.62
2022-11-27T13:17:24.901Z,10.62
2022-11-27T13:18:25.738Z,10.62
2022-11-27T13:19:26.597Z,10.69
2022-11-27T13:20:27.447Z,10.69
2022-11-27T13:21:28.333Z,10.69
2022-11-27T13:22:29.328Z,10.69
2022-11-27T13:23:30.097Z,10.62
2022-11-27T13:24:31.097Z,10.69
2022-11-27T13:25:31.447Z,10.69
2022-11-27T13:26:32.297Z,10.69